sensor_id;sensor_type;location;lat;lon;timestamp;pressure;altitude;pressure_sealevel;temperature;humidity
19520;BME280;9904;52.246;20.898;2024-01-07T00:02:13;100227.50;;;-6.59;91.22
19520;BME280;9904;52.246;20.898;2024-01-07T00:04:40;100218.72;;;-6.59;91.02
19520;BME280;9904;52.246;20.898;2024-01-07T00:07:07;100217.94;;;-6.61;91.05
19520;BME280;9904;52.246;20.898;2024-01-07T00:09:33;100212.03;;;-6.71;91.41
19520;BME280;9904;52.246;20.898;2024-01-07T00:12:00;100218.16;;;-6.69;91.87
19520;BME280;9904;52.246;20.898;2024-01-07T00:14:26;100224.13;;;-6.64;91.71
19520;BME280;9904;52.246;20.898;2024-01-07T00:16:53;100217.38;;;-6.73;91.90
19520;BME280;9904;52.246;20.898;2024-01-07T00:19:20;100221.38;;;-6.59;91.36
19520;BME280;9904;52.246;20.898;2024-01-07T00:21:47;100221.66;;;-6.69;91.70
19520;BME280;9904;52.246;20.898;2024-01-07T00:24:13;100223.34;;;-6.68;91.75
19520;BME280;9904;52.246;20.898;2024-01-07T00:26:40;100229.56;;;-6.69;91.75
19520;BME280;9904;52.246;20.898;2024-01-07T00:29:07;100226.09;;;-6.71;92.08
19520;BME280;9904;52.246;20.898;2024-01-07T00:31:33;100216.66;;;-6.79;92.46
19520;BME280;9904;52.246;20.898;2024-01-07T00:34:00;100231.41;;;-6.72;92.15
19520;BME280;9904;52.246;20.898;2024-01-07T00:36:26;100227.72;;;-6.66;91.98
19520;BME280;9904;52.246;20.898;2024-01-07T00:38:53;100233.09;;;-6.70;92.56
19520;BME280;9904;52.246;20.898;2024-01-07T00:41:20;100243.50;;;-6.66;92.36
19520;BME280;9904;52.246;20.898;2024-01-07T00:43:46;100245.50;;;-6.75;92.60
19520;BME280;9904;52.246;20.898;2024-01-07T00:46:13;100243.50;;;-6.66;92.75
19520;BME280;9904;52.246;20.898;2024-01-07T00:48:39;100240.75;;;-6.62;91.91
19520;BME280;9904;52.246;20.898;2024-01-07T00:51:06;100246.03;;;-6.62;91.87
19520;BME280;9904;52.246;20.898;2024-01-07T00:53:32;100249.59;;;-6.64;92.37
19520;BME280;9904;52.246;20.898;2024-01-07T00:55:59;100241.47;;;-6.57;91.98
19520;BME280;9904;52.246;20.898;2024-01-07T00:58:26;100245.84;;;-6.56;91.76
19520;BME280;9904;52.246;20.898;2024-01-07T01:00:52;100242.31;;;-6.55;91.42
19520;BME280;9904;52.246;20.898;2024-01-07T01:03:21;100250.16;;;-6.53;91.78
19520;BME280;9904;52.246;20.898;2024-01-07T01:05:48;100248.47;;;-6.56;92.25
19520;BME280;9904;52.246;20.898;2024-01-07T01:08:14;100254.69;;;-6.58;92.57
19520;BME280;9904;52.246;20.898;2024-01-07T01:10:41;100258.03;;;-6.51;91.70
19520;BME280;9904;52.246;20.898;2024-01-07T01:13:07;100262.53;;;-6.55;92.23
19520;BME280;9904;52.246;20.898;2024-01-07T01:15:34;100255.16;;;-6.42;91.81
19520;BME280;9904;52.246;20.898;2024-01-07T01:18:01;100256.13;;;-6.46;91.36
19520;BME280;9904;52.246;20.898;2024-01-07T01:20:28;100249.09;;;-6.46;91.21
19520;BME280;9904;52.246;20.898;2024-01-07T01:22:55;100263.06;;;-6.44;90.87
19520;BME280;9904;52.246;20.898;2024-01-07T01:25:21;100259.78;;;-6.52;90.94
19520;BME280;9904;52.246;20.898;2024-01-07T01:27:48;100259.78;;;-6.52;90.58
19520;BME280;9904;52.246;20.898;2024-01-07T01:30:14;100252.72;;;-6.50;90.87
19520;BME280;9904;52.246;20.898;2024-01-07T01:32:41;100259.72;;;-6.49;90.77
19520;BME280;9904;52.246;20.898;2024-01-07T01:35:08;100254.25;;;-6.43;90.00
19520;BME280;9904;52.246;20.898;2024-01-07T01:37:35;100250.78;;;-6.43;89.66
19520;BME280;9904;52.246;20.898;2024-01-07T01:40:03;100258.69;;;-6.45;89.69
19520;BME280;9904;52.246;20.898;2024-01-07T01:42:30;100256.13;;;-6.46;89.70
19520;BME280;9904;52.246;20.898;2024-01-07T01:44:57;100250.59;;;-6.37;89.53
19520;BME280;9904;52.246;20.898;2024-01-07T01:47:29;100258.25;;;-6.28;89.34
19520;BME280;9904;52.246;20.898;2024-01-07T01:49:56;100249.50;;;-6.30;89.50
19520;BME280;9904;52.246;20.898;2024-01-07T01:52:23;100251.25;;;-6.29;89.67
19520;BME280;9904;52.246;20.898;2024-01-07T01:54:50;100242.56;;;-6.32;89.75
19520;BME280;9904;52.246;20.898;2024-01-07T01:57:20;100246.16;;;-6.35;89.96
19520;BME280;9904;52.246;20.898;2024-01-07T01:59:49;100246.94;;;-6.31;89.97
19520;BME280;9904;52.246;20.898;2024-01-07T02:02:15;100247.19;;;-6.41;90.01
19520;BME280;9904;52.246;20.898;2024-01-07T02:04:42;100251.81;;;-6.49;90.77
19520;BME280;9904;52.246;20.898;2024-01-07T02:07:09;100248.28;;;-6.49;91.10
19520;BME280;9904;52.246;20.898;2024-01-07T02:09:36;100258.09;;;-6.55;91.73
19520;BME280;9904;52.246;20.898;2024-01-07T02:12:03;100253.03;;;-6.61;91.40
19520;BME280;9904;52.246;20.898;2024-01-07T02:14:30;100253.31;;;-6.72;92.30
19520;BME280;9904;52.246;20.898;2024-01-07T02:16:57;100247.97;;;-6.69;91.97
19520;BME280;9904;52.246;20.898;2024-01-07T02:19:24;100247.44;;;-6.81;92.39
19520;BME280;9904;52.246;20.898;2024-01-07T02:21:50;100239.31;;;-6.74;91.78
19520;BME280;9904;52.246;20.898;2024-01-07T02:24:17;100253.66;;;-6.84;92.52
19520;BME280;9904;52.246;20.898;2024-01-07T02:26:44;100250.38;;;-6.92;91.87
19520;BME280;9904;52.246;20.898;2024-01-07T02:29:11;100259.25;;;-6.96;92.24
19520;BME280;9904;52.246;20.898;2024-01-07T02:31:37;100257.38;;;-6.93;91.60
19520;BME280;9904;52.246;20.898;2024-01-07T02:34:04;100253.06;;;-6.95;92.02
19520;BME280;9904;52.246;20.898;2024-01-07T02:36:30;100251.91;;;-7.18;92.54
19520;BME280;9904;52.246;20.898;2024-01-07T02:38:57;100256.34;;;-7.20;93.12
19520;BME280;9904;52.246;20.898;2024-01-07T02:41:23;100253.81;;;-7.25;93.61
19520;BME280;9904;52.246;20.898;2024-01-07T02:43:52;100252.81;;;-7.19;93.34
19520;BME280;9904;52.246;20.898;2024-01-07T02:46:19;100257.50;;;-7.32;93.20
19520;BME280;9904;52.246;20.898;2024-01-07T02:48:46;100250.63;;;-7.36;93.54
19520;BME280;9904;52.246;20.898;2024-01-07T02:51:13;100251.56;;;-7.39;93.19
19520;BME280;9904;52.246;20.898;2024-01-07T02:53:39;100258.56;;;-7.38;93.31
19520;BME280;9904;52.246;20.898;2024-01-07T02:56:06;100246.69;;;-7.54;94.02
19520;BME280;9904;52.246;20.898;2024-01-07T02:58:35;100251.50;;;-7.37;93.55
19520;BME280;9904;52.246;20.898;2024-01-07T03:01:01;100256.19;;;-7.49;93.27
19520;BME280;9904;52.246;20.898;2024-01-07T03:03:28;100253.72;;;-7.56;93.63
19520;BME280;9904;52.246;20.898;2024-01-07T03:05:55;100256.41;;;-7.58;93.54
19520;BME280;9904;52.246;20.898;2024-01-07T03:08:21;100244.47;;;-7.71;94.00
19520;BME280;9904;52.246;20.898;2024-01-07T03:10:48;100247.88;;;-7.68;93.75
19520;BME280;9904;52.246;20.898;2024-01-07T03:13:14;100249.69;;;-7.70;93.74
19520;BME280;9904;52.246;20.898;2024-01-07T03:15:41;100255.28;;;-7.85;94.28
19520;BME280;9904;52.246;20.898;2024-01-07T03:18:07;100254.25;;;-7.78;93.98
19520;BME280;9904;52.246;20.898;2024-01-07T03:20:34;100248.13;;;-7.78;93.99
19520;BME280;9904;52.246;20.898;2024-01-07T03:23:01;100251.72;;;-7.83;94.00
19520;BME280;9904;52.246;20.898;2024-01-07T03:25:28;100258.66;;;-7.78;94.13
19520;BME280;9904;52.246;20.898;2024-01-07T03:27:54;100262.22;;;-7.83;93.99
19520;BME280;9904;52.246;20.898;2024-01-07T03:30:21;100253.59;;;-7.88;94.48
19520;BME280;9904;52.246;20.898;2024-01-07T03:32:48;100263.06;;;-7.81;94.20
19520;BME280;9904;52.246;20.898;2024-01-07T03:35:14;100256.94;;;-7.81;94.19
19520;BME280;9904;52.246;20.898;2024-01-07T03:37:41;100256.13;;;-7.85;93.78
19520;BME280;9904;52.246;20.898;2024-01-07T03:40:11;100258.66;;;-7.80;93.99
19520;BME280;9904;52.246;20.898;2024-01-07T03:42:41;100257.13;;;-7.89;93.97
19520;BME280;9904;52.246;20.898;2024-01-07T03:45:08;100250.81;;;-7.82;93.38
19520;BME280;9904;52.246;20.898;2024-01-07T03:47:34;100248.41;;;-7.91;93.17
19520;BME280;9904;52.246;20.898;2024-01-07T03:50:01;100261.41;;;-7.85;93.01
19520;BME280;9904;52.246;20.898;2024-01-07T03:52:28;100256.94;;;-7.81;93.27
19520;BME280;9904;52.246;20.898;2024-01-07T03:54:56;100262.28;;;-7.84;92.91
19520;BME280;9904;52.246;20.898;2024-01-07T03:57:22;100271.88;;;-7.83;92.76
19520;BME280;9904;52.246;20.898;2024-01-07T03:59:49;100268.72;;;-7.98;93.35
19520;BME280;9904;52.246;20.898;2024-01-07T04:02:15;100277.34;;;-7.92;93.23
19520;BME280;9904;52.246;20.898;2024-01-07T04:04:42;100265.00;;;-7.89;92.86
19520;BME280;9904;52.246;20.898;2024-01-07T04:07:09;100268.63;;;-7.94;92.83
19520;BME280;9904;52.246;20.898;2024-01-07T04:09:36;100276.56;;;-7.96;92.59
19520;BME280;9904;52.246;20.898;2024-01-07T04:12:03;100264.97;;;-7.87;92.63
19520;BME280;9904;52.246;20.898;2024-01-07T04:14:30;100272.09;;;-7.92;92.82
19520;BME280;9904;52.246;20.898;2024-01-07T04:17:00;100263.63;;;-8.05;93.05
19520;BME280;9904;52.246;20.898;2024-01-07T04:19:26;100272.28;;;-8.02;92.66
19520;BME280;9904;52.246;20.898;2024-01-07T04:21:53;100270.56;;;-8.03;92.24
19520;BME280;9904;52.246;20.898;2024-01-07T04:24:20;100260.03;;;-8.01;91.98
19520;BME280;9904;52.246;20.898;2024-01-07T04:26:47;100269.66;;;-8.02;92.08
19520;BME280;9904;52.246;20.898;2024-01-07T04:29:13;100266.97;;;-7.99;92.22
19520;BME280;9904;52.246;20.898;2024-01-07T04:31:40;100269.59;;;-7.99;92.20
19520;BME280;9904;52.246;20.898;2024-01-07T04:34:07;100275.91;;;-8.06;92.64
19520;BME280;9904;52.246;20.898;2024-01-07T04:36:33;100268.03;;;-8.07;92.58
19520;BME280;9904;52.246;20.898;2024-01-07T04:39:00;100268.97;;;-8.10;92.08
19520;BME280;9904;52.246;20.898;2024-01-07T04:41:26;100271.53;;;-8.07;92.20
19520;BME280;9904;52.246;20.898;2024-01-07T04:43:53;100276.09;;;-8.15;92.36
19520;BME280;9904;52.246;20.898;2024-01-07T04:46:20;100281.16;;;-8.07;91.80
19520;BME280;9904;52.246;20.898;2024-01-07T04:48:46;100278.84;;;-8.21;92.12
19520;BME280;9904;52.246;20.898;2024-01-07T04:51:13;100274.22;;;-8.08;91.76
19520;BME280;9904;52.246;20.898;2024-01-07T04:53:49;100270.69;;;-8.09;91.82
19520;BME280;9904;52.246;20.898;2024-01-07T04:56:15;100278.56;;;-8.09;92.25
19520;BME280;9904;52.246;20.898;2024-01-07T04:58:42;100285.38;;;-8.00;91.81
19520;BME280;9904;52.246;20.898;2024-01-07T05:01:08;100289.97;;;-8.10;92.10
19520;BME280;9904;52.246;20.898;2024-01-07T05:03:35;100298.66;;;-8.05;92.56
19520;BME280;9904;52.246;20.898;2024-01-07T05:06:02;100285.63;;;-8.11;91.83
19520;BME280;9904;52.246;20.898;2024-01-07T05:08:28;100289.81;;;-8.02;91.71
19520;BME280;9904;52.246;20.898;2024-01-07T05:10:55;100284.56;;;-8.02;92.24
19520;BME280;9904;52.246;20.898;2024-01-07T05:13:22;100292.31;;;-7.96;92.11
19520;BME280;9904;52.246;20.898;2024-01-07T05:15:48;100291.38;;;-7.93;91.04
19520;BME280;9904;52.246;20.898;2024-01-07T05:18:21;100291.66;;;-8.06;91.28
19520;BME280;9904;52.246;20.898;2024-01-07T05:20:49;100296.88;;;-8.04;91.57
19520;BME280;9904;52.246;20.898;2024-01-07T05:23:16;100291.66;;;-8.06;92.06
19520;BME280;9904;52.246;20.898;2024-01-07T05:25:43;100294.19;;;-8.01;91.37
19520;BME280;9904;52.246;20.898;2024-01-07T05:28:11;100298.56;;;-8.02;91.06
19520;BME280;9904;52.246;20.898;2024-01-07T05:30:38;100297.00;;;-8.10;91.67
19520;BME280;9904;52.246;20.898;2024-01-07T05:33:05;100297.75;;;-8.05;91.14
19520;BME280;9904;52.246;20.898;2024-01-07T05:35:32;100301.50;;;-8.16;91.22
19520;BME280;9904;52.246;20.898;2024-01-07T05:37:58;100298.88;;;-8.16;91.37
19520;BME280;9904;52.246;20.898;2024-01-07T05:40:25;100299.84;;;-8.21;91.07
19520;BME280;9904;52.246;20.898;2024-01-07T05:42:51;100313.88;;;-8.22;91.71
19520;BME280;9904;52.246;20.898;2024-01-07T05:45:18;100313.94;;;-8.25;91.93
19520;BME280;9904;52.246;20.898;2024-01-07T05:47:44;100305.91;;;-8.19;91.32
19520;BME280;9904;52.246;20.898;2024-01-07T05:50:11;100314.81;;;-8.27;91.52
19520;BME280;9904;52.246;20.898;2024-01-07T05:52:37;100306.03;;;-8.24;91.61
19520;BME280;9904;52.246;20.898;2024-01-07T05:55:05;100307.91;;;-8.31;91.13
19520;BME280;9904;52.246;20.898;2024-01-07T05:57:31;100298.34;;;-8.33;91.48
19520;BME280;9904;52.246;20.898;2024-01-07T05:59:58;100302.75;;;-8.35;91.35
19520;BME280;9904;52.246;20.898;2024-01-07T06:02:24;100297.53;;;-8.37;91.36
19520;BME280;9904;52.246;20.898;2024-01-07T06:04:51;100316.72;;;-8.33;91.58
19520;BME280;9904;52.246;20.898;2024-01-07T06:07:18;100309.38;;;-8.17;90.88
19520;BME280;9904;52.246;20.898;2024-01-07T06:09:44;100307.59;;;-8.15;90.91
19520;BME280;9904;52.246;20.898;2024-01-07T06:12:11;100307.66;;;-8.18;90.84
19520;BME280;9904;52.246;20.898;2024-01-07T06:14:37;100309.56;;;-8.25;91.39
19520;BME280;9904;52.246;20.898;2024-01-07T06:17:04;100316.81;;;-8.38;91.73
19520;BME280;9904;52.246;20.898;2024-01-07T06:19:30;100315.75;;;-8.29;91.42
19520;BME280;9904;52.246;20.898;2024-01-07T06:21:57;100318.38;;;-8.28;91.35
19520;BME280;9904;52.246;20.898;2024-01-07T06:24:24;100312.06;;;-8.19;91.37
19520;BME280;9904;52.246;20.898;2024-01-07T06:26:50;100306.81;;;-8.19;91.03
19520;BME280;9904;52.246;20.898;2024-01-07T06:29:16;100316.25;;;-8.10;90.62
19520;BME280;9904;52.246;20.898;2024-01-07T06:31:44;100328.00;;;-8.28;91.59
19520;BME280;9904;52.246;20.898;2024-01-07T06:34:12;100325.22;;;-8.20;91.39
19520;BME280;9904;52.246;20.898;2024-01-07T06:36:41;100326.84;;;-8.15;90.83
19520;BME280;9904;52.246;20.898;2024-01-07T06:39:08;100331.38;;;-8.21;91.24
19520;BME280;9904;52.246;20.898;2024-01-07T06:41:35;100343.63;;;-8.20;91.35
19520;BME280;9904;52.246;20.898;2024-01-07T06:44:02;100348.75;;;-8.14;91.08
19520;BME280;9904;52.246;20.898;2024-01-07T06:46:29;100340.91;;;-8.16;91.18
19520;BME280;9904;52.246;20.898;2024-01-07T06:48:56;100353.94;;;-8.13;90.87
19520;BME280;9904;52.246;20.898;2024-01-07T06:51:22;100346.25;;;-8.22;90.59
19520;BME280;9904;52.246;20.898;2024-01-07T06:53:49;100358.56;;;-8.24;90.78
19520;BME280;9904;52.246;20.898;2024-01-07T06:56:16;100351.53;;;-8.23;91.46
19520;BME280;9904;52.246;20.898;2024-01-07T06:58:43;100357.50;;;-8.15;90.91
19520;BME280;9904;52.246;20.898;2024-01-07T07:01:10;100346.78;;;-8.04;90.58
19520;BME280;9904;52.246;20.898;2024-01-07T07:03:39;100354.84;;;-8.14;91.11
19520;BME280;9904;52.246;20.898;2024-01-07T07:06:06;100358.34;;;-8.15;91.00
19520;BME280;9904;52.246;20.898;2024-01-07T07:08:33;100361.69;;;-8.06;91.17
19520;BME280;9904;52.246;20.898;2024-01-07T07:11:00;100356.34;;;-8.02;90.54
19520;BME280;9904;52.246;20.898;2024-01-07T07:13:27;100365.97;;;-8.01;90.96
19520;BME280;9904;52.246;20.898;2024-01-07T07:15:57;100361.56;;;-7.99;90.39
19520;BME280;9904;52.246;20.898;2024-01-07T07:18:23;100356.25;;;-7.97;90.49
19520;BME280;9904;52.246;20.898;2024-01-07T07:20:51;100367.44;;;-7.86;90.28
19520;BME280;9904;52.246;20.898;2024-01-07T07:23:17;100357.53;;;-7.74;90.00
19520;BME280;9904;52.246;20.898;2024-01-07T07:25:44;100369.03;;;-7.80;89.95
19520;BME280;9904;52.246;20.898;2024-01-07T07:28:11;100361.94;;;-7.76;89.84
19520;BME280;9904;52.246;20.898;2024-01-07T07:30:37;100363.72;;;-7.77;90.11
19520;BME280;9904;52.246;20.898;2024-01-07T07:33:04;100364.56;;;-7.76;89.68
19520;BME280;9904;52.246;20.898;2024-01-07T07:35:30;100363.44;;;-7.65;89.32
19520;BME280;9904;52.246;20.898;2024-01-07T07:37:57;100367.84;;;-7.65;89.23
19520;BME280;9904;52.246;20.898;2024-01-07T07:40:24;100355.84;;;-7.77;88.99
19520;BME280;9904;52.246;20.898;2024-01-07T07:42:51;100369.53;;;-7.62;88.79
19520;BME280;9904;52.246;20.898;2024-01-07T07:45:17;100373.25;;;-7.71;88.74
19520;BME280;9904;52.246;20.898;2024-01-07T07:47:44;100378.38;;;-7.65;88.92
19520;BME280;9904;52.246;20.898;2024-01-07T07:50:12;100378.22;;;-7.59;88.75
19520;BME280;9904;52.246;20.898;2024-01-07T07:52:39;100372.22;;;-7.66;89.07
19520;BME280;9904;52.246;20.898;2024-01-07T07:55:07;100371.09;;;-7.54;88.59
19520;BME280;9904;52.246;20.898;2024-01-07T07:57:34;100383.28;;;-7.50;88.13
19520;BME280;9904;52.246;20.898;2024-01-07T08:00:01;100383.19;;;-7.45;87.82
19520;BME280;9904;52.246;20.898;2024-01-07T08:02:30;100389.53;;;-7.55;88.30
19520;BME280;9904;52.246;20.898;2024-01-07T08:04:57;100379.88;;;-7.53;87.97
19520;BME280;9904;52.246;20.898;2024-01-07T08:07:24;100390.97;;;-7.40;87.64
19520;BME280;9904;52.246;20.898;2024-01-07T08:09:51;100377.34;;;-7.58;87.84
19520;BME280;9904;52.246;20.898;2024-01-07T08:12:18;100392.06;;;-7.51;87.77
19520;BME280;9904;52.246;20.898;2024-01-07T08:14:44;100388.34;;;-7.40;87.57
19520;BME280;9904;52.246;20.898;2024-01-07T08:17:11;100398.91;;;-7.43;87.98
19520;BME280;9904;52.246;20.898;2024-01-07T08:19:37;100401.38;;;-7.36;87.67
19520;BME280;9904;52.246;20.898;2024-01-07T08:22:04;100411.00;;;-7.35;87.34
19520;BME280;9904;52.246;20.898;2024-01-07T08:24:31;100409.06;;;-7.26;87.15
19520;BME280;9904;52.246;20.898;2024-01-07T08:26:58;100395.91;;;-7.26;86.07
19520;BME280;9904;52.246;20.898;2024-01-07T08:29:25;100416.25;;;-7.35;86.25
19520;BME280;9904;52.246;20.898;2024-01-07T08:31:51;100412.88;;;-7.40;87.13
19520;BME280;9904;52.246;20.898;2024-01-07T08:34:18;100406.06;;;-7.11;86.71
19520;BME280;9904;52.246;20.898;2024-01-07T08:36:45;100414.16;;;-7.19;85.93
19520;BME280;9904;52.246;20.898;2024-01-07T08:39:14;100420.56;;;-7.32;86.44
19520;BME280;9904;52.246;20.898;2024-01-07T08:41:41;100408.47;;;-7.39;86.44
19520;BME280;9904;52.246;20.898;2024-01-07T08:44:08;100408.53;;;-7.42;86.45
19520;BME280;9904;52.246;20.898;2024-01-07T08:46:35;100413.75;;;-7.41;86.88
19520;BME280;9904;52.246;20.898;2024-01-07T08:49:02;100407.41;;;-7.32;86.55
19520;BME280;9904;52.246;20.898;2024-01-07T08:51:29;100408.25;;;-7.30;86.39
19520;BME280;9904;52.246;20.898;2024-01-07T08:53:57;100415.44;;;-7.38;86.78
19520;BME280;9904;52.246;20.898;2024-01-07T08:56:25;100419.66;;;-7.31;87.16
19520;BME280;9904;52.246;20.898;2024-01-07T08:58:51;100415.31;;;-7.32;85.75
19520;BME280;9904;52.246;20.898;2024-01-07T09:01:18;100427.56;;;-7.31;85.41
19520;BME280;9904;52.246;20.898;2024-01-07T09:03:45;100428.75;;;-7.44;86.05
19520;BME280;9904;52.246;20.898;2024-01-07T09:06:12;100424.47;;;-7.50;86.62
19520;BME280;9904;52.246;20.898;2024-01-07T09:08:38;100426.06;;;-7.41;86.24
19520;BME280;9904;52.246;20.898;2024-01-07T09:11:05;100424.09;;;-7.32;85.77
19520;BME280;9904;52.246;20.898;2024-01-07T09:13:33;100425.88;;;-7.34;85.54
19520;BME280;9904;52.246;20.898;2024-01-07T09:15:59;100423.19;;;-7.32;85.33
19520;BME280;9904;52.246;20.898;2024-01-07T09:18:26;100425.81;;;-7.32;86.26
19520;BME280;9904;52.246;20.898;2024-01-07T09:20:53;100423.09;;;-7.27;86.09
19520;BME280;9904;52.246;20.898;2024-01-07T09:23:21;100432.88;;;-7.33;85.60
19520;BME280;9904;52.246;20.898;2024-01-07T09:25:48;100431.16;;;-7.35;86.00
19520;BME280;9904;52.246;20.898;2024-01-07T09:28:15;100430.28;;;-7.36;85.93
19520;BME280;9904;52.246;20.898;2024-01-07T09:30:42;100432.72;;;-7.26;85.62
19520;BME280;9904;52.246;20.898;2024-01-07T09:33:08;100433.72;;;-7.30;85.45
19520;BME280;9904;52.246;20.898;2024-01-07T09:35:35;100422.28;;;-7.29;85.37
19520;BME280;9904;52.246;20.898;2024-01-07T09:38:02;100411.78;;;-7.29;85.14
19520;BME280;9904;52.246;20.898;2024-01-07T09:40:28;100419.53;;;-7.25;84.66
19520;BME280;9904;52.246;20.898;2024-01-07T09:42:55;100423.13;;;-7.29;85.34
19520;BME280;9904;52.246;20.898;2024-01-07T09:45:22;100409.88;;;-7.24;85.46
19520;BME280;9904;52.246;20.898;2024-01-07T09:47:49;100416.84;;;-7.22;85.67
19520;BME280;9904;52.246;20.898;2024-01-07T09:50:16;100422.84;;;-7.15;85.23
19520;BME280;9904;52.246;20.898;2024-01-07T09:52:43;100418.72;;;-7.27;84.81
19520;BME280;9904;52.246;20.898;2024-01-07T09:55:14;100409.28;;;-7.37;84.75
19520;BME280;9904;52.246;20.898;2024-01-07T09:57:45;100422.53;;;-7.40;85.54
19520;BME280;9904;52.246;20.898;2024-01-07T10:00:12;100414.66;;;-7.40;85.80
19520;BME280;9904;52.246;20.898;2024-01-07T10:02:39;100417.03;;;-7.31;85.61
19520;BME280;9904;52.246;20.898;2024-01-07T10:05:08;100415.44;;;-7.37;85.80
19520;BME280;9904;52.246;20.898;2024-01-07T10:07:34;100420.41;;;-7.24;85.64
19520;BME280;9904;52.246;20.898;2024-01-07T10:10:14;100423.25;;;-7.34;85.65
19520;BME280;9904;52.246;20.898;2024-01-07T10:12:41;100412.88;;;-7.40;85.46
19520;BME280;9904;52.246;20.898;2024-01-07T10:15:09;100417.22;;;-7.39;86.19
19520;BME280;9904;52.246;20.898;2024-01-07T10:17:36;100417.13;;;-7.34;85.73
19520;BME280;9904;52.246;20.898;2024-01-07T10:20:05;100413.59;;;-7.33;85.67
19520;BME280;9904;52.246;20.898;2024-01-07T10:22:39;100416.69;;;-7.14;85.24
19520;BME280;9904;52.246;20.898;2024-01-07T10:25:06;100405.97;;;-7.06;84.84
19520;BME280;9904;52.246;20.898;2024-01-07T10:27:36;100411.56;;;-7.22;85.54
19520;BME280;9904;52.246;20.898;2024-01-07T10:30:03;100409.19;;;-7.33;85.85
19520;BME280;9904;52.246;20.898;2024-01-07T10:32:30;100412.47;;;-7.23;85.77
19520;BME280;9904;52.246;20.898;2024-01-07T10:35:02;100405.47;;;-7.24;86.28
19520;BME280;9904;52.246;20.898;2024-01-07T10:37:30;100411.53;;;-7.20;86.05
19520;BME280;9904;52.246;20.898;2024-01-07T10:39:58;100406.38;;;-7.23;86.01
19520;BME280;9904;52.246;20.898;2024-01-07T10:42:33;100405.31;;;-7.16;86.53
19520;BME280;9904;52.246;20.898;2024-01-07T10:45:00;100412.28;;;-7.13;86.58
19520;BME280;9904;52.246;20.898;2024-01-07T10:47:31;100409.44;;;-7.04;86.32
19520;BME280;9904;52.246;20.898;2024-01-07T10:50:03;100407.81;;;-7.10;85.55
19520;BME280;9904;52.246;20.898;2024-01-07T10:52:31;100417.47;;;-7.10;85.02
19520;BME280;9904;52.246;20.898;2024-01-07T10:55:07;100411.94;;;-7.37;86.24
19520;BME280;9904;52.246;20.898;2024-01-07T10:57:43;100421.56;;;-7.36;86.62
19520;BME280;9904;52.246;20.898;2024-01-07T11:00:14;100427.56;;;-7.29;86.20
19520;BME280;9904;52.246;20.898;2024-01-07T11:08:26;100418.06;;;-7.38;86.43
19520;BME280;9904;52.246;20.898;2024-01-07T11:11:06;100420.56;;;-7.32;86.12
19520;BME280;9904;52.246;20.898;2024-01-07T11:13:36;100418.03;;;-7.35;86.28
19520;BME280;9904;52.246;20.898;2024-01-07T11:16:05;100417.81;;;-7.26;86.75
19520;BME280;9904;52.246;20.898;2024-01-07T11:18:40;100417.47;;;-7.12;85.94
19520;BME280;9904;52.246;20.898;2024-01-07T11:21:20;100418.56;;;-7.21;85.50
19520;BME280;9904;52.246;20.898;2024-01-07T11:23:47;100416.69;;;-7.16;85.84
19520;BME280;9904;52.246;20.898;2024-01-07T11:26:14;100414.66;;;-7.03;85.01
19520;BME280;9904;52.246;20.898;2024-01-07T11:28:51;100415.75;;;-7.11;84.66
19520;BME280;9904;52.246;20.898;2024-01-07T11:31:20;100415.09;;;-7.23;84.69
19520;BME280;9904;52.246;20.898;2024-01-07T11:33:49;100409.09;;;-7.28;85.57
19520;BME280;9904;52.246;20.898;2024-01-07T11:36:17;100411.03;;;-7.36;85.61
19520;BME280;9904;52.246;20.898;2024-01-07T11:38:48;100402.41;;;-7.43;85.63
19520;BME280;9904;52.246;20.898;2024-01-07T11:41:20;100403.19;;;-7.38;85.30
19520;BME280;9904;52.246;20.898;2024-01-07T11:43:55;100406.16;;;-7.16;84.65
19520;BME280;9904;52.246;20.898;2024-01-07T11:46:22;100419.47;;;-7.22;84.57
19520;BME280;9904;52.246;20.898;2024-01-07T11:48:53;100410.88;;;-7.30;84.43
19520;BME280;9904;52.246;20.898;2024-01-07T11:51:21;100405.38;;;-7.18;84.10
19520;BME280;9904;52.246;20.898;2024-01-07T11:53:47;100406.50;;;-7.29;84.36
19520;BME280;9904;52.246;20.898;2024-01-07T11:56:14;100416.00;;;-7.24;83.42
19520;BME280;9904;52.246;20.898;2024-01-07T11:58:41;100417.72;;;-7.23;83.70
19520;BME280;9904;52.246;20.898;2024-01-07T12:01:08;100409.16;;;-7.31;83.41
19520;BME280;9904;52.246;20.898;2024-01-07T12:03:35;100412.97;;;-7.44;83.36
19520;BME280;9904;52.246;20.898;2024-01-07T12:06:03;100409.47;;;-7.45;83.15
19520;BME280;9904;52.246;20.898;2024-01-07T12:08:30;100416.72;;;-7.56;83.41
19520;BME280;9904;52.246;20.898;2024-01-07T12:10:57;100408.69;;;-7.50;83.63
19520;BME280;9904;52.246;20.898;2024-01-07T12:13:24;100414.56;;;-7.37;82.85
19520;BME280;9904;52.246;20.898;2024-01-07T12:15:51;100414.56;;;-7.37;83.10
19520;BME280;9904;52.246;20.898;2024-01-07T12:18:17;100414.50;;;-7.36;83.14
19520;BME280;9904;52.246;20.898;2024-01-07T12:20:55;100424.38;;;-7.44;83.48
19520;BME280;9904;52.246;20.898;2024-01-07T12:23:22;100413.75;;;-7.41;82.72
19520;BME280;9904;52.246;20.898;2024-01-07T12:25:49;100419.13;;;-7.45;82.51
19520;BME280;9904;52.246;20.898;2024-01-07T12:28:16;100418.47;;;-7.55;82.65
19520;BME280;9904;52.246;20.898;2024-01-07T12:30:47;100417.47;;;-7.50;82.67
19520;BME280;9904;52.246;20.898;2024-01-07T12:33:21;100418.50;;;-7.58;82.54
19520;BME280;9904;52.246;20.898;2024-01-07T12:35:47;100424.56;;;-7.53;82.47
19520;BME280;9904;52.246;20.898;2024-01-07T12:38:14;100434.19;;;-7.52;81.86
19520;BME280;9904;52.246;20.898;2024-01-07T12:40:41;100420.19;;;-7.54;81.58
19520;BME280;9904;52.246;20.898;2024-01-07T12:43:08;100427.09;;;-7.49;81.70
19520;BME280;9904;52.246;20.898;2024-01-07T12:45:34;100434.09;;;-7.49;81.99
19520;BME280;9904;52.246;20.898;2024-01-07T12:48:01;100435.72;;;-7.43;82.06
19520;BME280;9904;52.246;20.898;2024-01-07T12:50:29;100431.38;;;-7.44;82.28
19520;BME280;9904;52.246;20.898;2024-01-07T12:52:59;100433.34;;;-7.54;82.70
19520;BME280;9904;52.246;20.898;2024-01-07T12:55:26;100439.59;;;-7.60;82.34
19520;BME280;9904;52.246;20.898;2024-01-07T12:57:53;100437.94;;;-7.64;82.21